Time;durP1;ratioP1;P1;durP2;ratioP2;P2;SDS_P1;SDS_P2;PMS_P1;PMS_P2;Temp;Humidity;BMP_temperature;BMP_pressure;BME280_temperature;BME280_humidity;BME280_pressure;Samples;Min_cycle;Max_cycle;Signal;HPM_P1;HPM_P2
2022/08/28 00:00:43;;;;;;;19.05;16.90;;;18.80;99.90;;;;;;5050740;28;20258;-72
2022/08/28 00:03:13;;;;;;;27.67;20.35;;;18.70;99.90;;;;;;5051710;28;20208;-73
2022/08/28 00:05:45;;;;;;;25.65;19.80;;;18.70;99.90;;;;;;5051917;28;20195;-73
2022/08/28 00:08:15;;;;;;;25.92;17.77;;;18.70;99.90;;;;;;5054831;28;20569;-73
2022/08/28 00:10:45;;;;;;;20.95;16.35;;;18.70;99.90;;;;;;5051140;28;20220;-73
2022/08/28 00:13:19;;;;;;;19.48;16.58;;;18.60;99.90;;;;;;5052254;28;20221;-73
2022/08/28 00:15:50;;;;;;;20.52;16.42;;;18.70;99.90;;;;;;5055672;28;20188;-76
2022/08/28 00:18:20;;;;;;;26.80;16.85;;;18.60;99.90;;;;;;5055537;28;20552;-77
2022/08/28 00:20:49;;;;;;;19.20;16.50;;;18.60;99.90;;;;;;5055760;28;20227;-76
2022/08/28 00:23:19;;;;;;;19.92;16.42;;;18.60;99.90;;;;;;5054716;28;20229;-75
2022/08/28 00:25:47;;;;;;;20.20;16.27;;;18.60;99.90;;;;;;5054293;28;20195;-71
2022/08/28 00:28:17;;;;;;;23.20;16.00;;;18.60;99.90;;;;;;5055317;28;20196;-73
2022/08/28 00:30:54;;;;;;;19.63;15.70;;;18.60;99.90;;;;;;5055369;28;20594;-74
2022/08/28 00:33:26;;;;;;;19.95;16.30;;;18.50;99.90;;;;;;5053844;28;20817;-75
2022/08/28 00:35:56;;;;;;;23.42;16.20;;;18.60;99.90;;;;;;5054167;28;20561;-74
2022/08/28 00:38:26;;;;;;;19.42;15.32;;;18.60;99.90;;;;;;5068218;28;20707;-74
2022/08/28 00:40:58;;;;;;;20.58;15.27;;;18.60;99.90;;;;;;5075096;28;20231;-74
2022/08/28 00:43:35;;;;;;;18.08;15.27;;;18.50;99.90;;;;;;5073709;28;20207;-73
2022/08/28 00:46:07;;;;;;;19.23;15.35;;;18.50;99.90;;;;;;5074696;28;20191;-74
2022/08/28 00:48:37;;;;;;;18.17;14.82;;;18.50;99.90;;;;;;5075156;28;20195;-73
2022/08/28 00:53:55;;;;;;;19.63;15.27;;;18.50;99.90;;;;;;5056079;28;20204;-73
2022/08/28 00:56:29;;;;;;;18.15;14.80;;;18.50;99.90;;;;;;5053780;28;20203;-73
2022/08/28 00:59:05;;;;;;;18.15;14.73;;;18.40;99.90;;;;;;5054969;28;20653;-74
2022/08/28 01:01:34;;;;;;;17.45;14.30;;;18.40;99.90;;;;;;5053569;28;20231;-74
2022/08/28 01:04:05;;;;;;;20.20;15.80;;;18.40;99.90;;;;;;5054807;28;20275;-73
2022/08/28 01:06:35;;;;;;;21.52;14.73;;;18.40;99.90;;;;;;5053854;28;20218;-75
2022/08/28 01:09:05;;;;;;;18.75;15.18;;;18.40;99.90;;;;;;5054024;28;20199;-73
2022/08/28 01:11:34;;;;;;;17.75;14.68;;;18.30;99.90;;;;;;5053339;28;20219;-73
2022/08/28 01:14:05;;;;;;;20.40;14.52;;;18.40;99.90;;;;;;5055004;28;20207;-74
2022/08/28 01:16:34;;;;;;;17.38;14.95;;;18.30;99.90;;;;;;5054568;28;20213;-74
2022/08/28 01:19:07;;;;;;;20.55;14.85;;;18.30;99.90;;;;;;5054082;28;20196;-72
2022/08/28 01:21:42;;;;;;;19.45;14.75;;;18.30;99.90;;;;;;5053715;28;20231;-73
2022/08/28 01:24:16;;;;;;;17.63;14.70;;;18.30;99.90;;;;;;5052031;28;20196;-73
2022/08/28 01:26:46;;;;;;;20.17;14.48;;;18.30;99.90;;;;;;5057214;28;20200;-74
2022/08/28 01:29:15;;;;;;;19.02;14.48;;;18.30;99.90;;;;;;5054379;28;20765;-74
2022/08/28 01:31:43;;;;;;;19.38;14.75;;;18.30;99.90;;;;;;5054169;28;20235;-73
2022/08/28 01:34:13;;;;;;;17.27;14.65;;;18.30;99.90;;;;;;5052276;28;20570;-75
2022/08/28 01:36:42;;;;;;;23.70;15.40;;;18.30;99.90;;;;;;5053769;28;20208;-72
2022/08/28 01:39:15;;;;;;;21.88;14.32;;;18.30;99.90;;;;;;5054167;28;20203;-73
2022/08/28 01:41:47;;;;;;;19.67;14.77;;;18.30;99.90;;;;;;5053627;28;20235;-74
2022/08/28 01:44:18;;;;;;;19.60;15.27;;;18.20;99.90;;;;;;5052844;28;20214;-73
2022/08/28 01:46:47;;;;;;;19.65;15.27;;;18.30;99.90;;;;;;5053507;28;20207;-74
2022/08/28 01:49:15;;;;;;;20.25;14.68;;;18.20;99.90;;;;;;5053807;28;20208;-75
2022/08/28 01:51:44;;;;;;;20.42;15.35;;;18.20;99.90;;;;;;5053137;28;20242;-74
2022/08/28 01:54:15;;;;;;;20.73;16.00;;;18.20;99.90;;;;;;5060174;28;21462;-73
2022/08/28 01:56:44;;;;;;;23.05;16.13;;;18.20;99.90;;;;;;5052908;28;20207;-73
2022/08/28 01:59:14;;;;;;;22.58;15.73;;;18.20;99.90;;;;;;5053636;28;20200;-74
2022/08/28 02:01:43;;;;;;;18.95;15.73;;;18.20;99.90;;;;;;5053731;28;20236;-74
2022/08/28 02:04:12;;;;;;;20.33;15.57;;;18.20;99.90;;;;;;5053790;28;20199;-73
2022/08/28 02:06:41;;;;;;;20.42;16.23;;;18.20;99.90;;;;;;5053200;28;20571;-74
2022/08/28 02:09:10;;;;;;;20.77;16.08;;;18.20;99.90;;;;;;5052412;28;20204;-73
2022/08/28 02:11:43;;;;;;;18.67;14.68;;;18.20;99.90;;;;;;5053612;28;20231;-74
2022/08/28 02:14:14;;;;;;;20.98;15.18;;;18.20;99.90;;;;;;5053171;28;20215;-74
2022/08/28 02:16:43;;;;;;;17.75;14.45;;;18.20;99.90;;;;;;5053267;28;20199;-73
2022/08/28 02:19:12;;;;;;;18.25;15.02;;;18.20;99.90;;;;;;5053538;28;20212;-74
2022/08/28 02:21:41;;;;;;;21.13;15.32;;;18.20;99.90;;;;;;5051986;28;20227;-74
2022/08/28 02:24:10;;;;;;;18.65;15.82;;;18.20;99.90;;;;;;5053094;28;20200;-75
2022/08/28 02:26:39;;;;;;;24.45;16.58;;;18.20;99.90;;;;;;5052967;28;20200;-75
2022/08/28 02:29:09;;;;;;;19.27;15.77;;;18.20;99.90;;;;;;5051576;28;20200;-74
2022/08/28 02:31:38;;;;;;;18.92;15.95;;;18.10;99.90;;;;;;5052890;28;20582;-74
2022/08/28 02:34:10;;;;;;;21.13;15.65;;;18.10;99.90;;;;;;5053000;28;20207;-74
2022/08/28 02:36:41;;;;;;;22.88;15.90;;;18.10;99.90;;;;;;5051119;28;20202;-73
2022/08/28 02:39:10;;;;;;;20.42;14.98;;;18.10;99.90;;;;;;5053215;28;20556;-73
2022/08/28 02:41:39;;;;;;;18.80;15.90;;;18.10;99.90;;;;;;5052568;28;20591;-73
2022/08/28 02:44:09;;;;;;;21.75;15.43;;;18.10;99.90;;;;;;5050781;28;20206;-76
2022/08/28 02:46:38;;;;;;;26.35;16.30;;;18.10;99.90;;;;;;5052709;28;20580;-75
2022/08/28 02:49:07;;;;;;;21.52;15.65;;;18.10;99.90;;;;;;5053007;28;20681;-74
2022/08/28 02:51:35;;;;;;;19.67;15.55;;;18.10;99.90;;;;;;5051623;28;20238;-73
2022/08/28 02:54:04;;;;;;;18.88;15.20;;;18.10;99.90;;;;;;5053185;28;20200;-74
2022/08/28 02:56:33;;;;;;;20.25;15.60;;;18.10;99.90;;;;;;5052855;28;20200;-74
2022/08/28 02:59:01;;;;;;;22.63;15.73;;;18.10;99.90;;;;;;5052536;28;20569;-75
2022/08/28 03:01:32;;;;;;;20.13;15.88;;;18.00;99.90;;;;;;5051635;28;20243;-74
2022/08/28 03:04:02;;;;;;;19.67;15.60;;;18.00;99.90;;;;;;5052746;28;20227;-75
2022/08/28 03:06:31;;;;;;;19.88;15.38;;;18.00;99.90;;;;;;5051445;28;20200;-74
2022/08/28 03:09:00;;;;;;;23.65;16.05;;;18.00;99.90;;;;;;5052556;28;20203;-74
2022/08/28 03:11:29;;;;;;;19.50;15.32;;;18.00;99.90;;;;;;5051783;28;20219;-71
2022/08/28 03:13:58;;;;;;;21.73;15.68;;;18.00;99.90;;;;;;5050543;28;20561;-75
2022/08/28 03:16:26;;;;;;;18.27;15.60;;;18.00;99.90;;;;;;5060667;28;20210;-73
2022/08/28 03:18:57;;;;;;;21.60;15.38;;;18.00;99.90;;;;;;5071903;28;20282;-72
2022/08/28 03:21:25;;;;;;;19.98;15.48;;;18.00;99.90;;;;;;5068088;28;20230;-74
2022/08/28 03:23:54;;;;;;;21.75;14.85;;;18.00;99.90;;;;;;5073371;28;20203;-74
2022/08/28 03:26:24;;;;;;;22.65;16.15;;;18.00;99.90;;;;;;5064615;28;20666;-75
2022/08/28 03:28:56;;;;;;;21.88;15.93;;;17.90;99.90;;;;;;5052220;28;20200;-74
2022/08/28 03:31:32;;;;;;;21.25;16.33;;;17.90;99.90;;;;;;5052401;28;20226;-74
2022/08/28 03:34:03;;;;;;;23.08;15.73;;;17.90;99.90;;;;;;5051963;28;20231;-75
2022/08/28 03:36:32;;;;;;;20.05;15.68;;;17.90;99.90;;;;;;5052639;28;20195;-76
2022/08/28 03:39:04;;;;;;;18.25;15.55;;;17.90;99.90;;;;;;5050875;28;20206;-74
2022/08/28 03:41:33;;;;;;;25.05;16.75;;;17.90;99.90;;;;;;5052286;28;20693;-75
2022/08/28 03:44:03;;;;;;;17.65;15.48;;;17.90;99.90;;;;;;5051989;28;20235;-74
2022/08/28 03:46:33;;;;;;;19.05;15.38;;;17.90;99.90;;;;;;5052047;28;20681;-74
2022/08/28 03:49:04;;;;;;;18.55;15.02;;;17.90;99.90;;;;;;5055714;28;20198;-75
2022/08/28 03:51:34;;;;;;;20.42;15.77;;;17.90;99.90;;;;;;5056151;28;20219;-74
2022/08/28 03:54:04;;;;;;;18.95;16.35;;;17.90;99.90;;;;;;5056485;28;20226;-75
2022/08/28 03:56:33;;;;;;;19.98;16.15;;;17.90;99.90;;;;;;5055351;28;20187;-75
2022/08/28 03:59:04;;;;;;;19.40;15.35;;;17.90;99.90;;;;;;5054499;28;20677;-74
2022/08/28 04:01:33;;;;;;;18.92;14.73;;;17.90;99.90;;;;;;5057914;28;20223;-74
2022/08/28 04:04:04;;;;;;;21.45;15.30;;;17.90;99.90;;;;;;5055871;28;20223;-76
2022/08/28 04:06:32;;;;;;;19.20;15.75;;;18.00;99.90;;;;;;5058791;28;20196;-74
2022/08/28 04:09:03;;;;;;;20.17;15.40;;;17.90;99.90;;;;;;5054313;28;20780;-73
2022/08/28 04:11:37;;;;;;;22.20;15.15;;;17.90;99.90;;;;;;5054533;28;20216;-74
2022/08/28 04:14:06;;;;;;;22.73;16.33;;;17.90;99.90;;;;;;5056349;28;20204;-75
2022/08/28 04:16:35;;;;;;;19.38;15.98;;;17.90;99.90;;;;;;5055318;28;20199;-75
2022/08/28 04:19:06;;;;;;;20.55;16.70;;;17.80;99.90;;;;;;5055639;28;20198;-74
2022/08/28 04:21:34;;;;;;;23.80;16.08;;;17.90;99.90;;;;;;5053546;28;20219;-76
2022/08/28 04:24:04;;;;;;;21.80;15.98;;;17.80;99.90;;;;;;5054542;28;20231;-75
2022/08/28 04:26:37;;;;;;;22.40;15.90;;;17.80;99.90;;;;;;5054199;28;20196;-76
2022/08/28 04:29:06;;;;;;;19.88;15.80;;;17.80;99.90;;;;;;5055715;28;20199;-73
2022/08/28 04:31:35;;;;;;;20.73;15.55;;;17.80;99.90;;;;;;5072655;28;20567;-75
2022/08/28 04:34:09;;;;;;;20.52;16.35;;;17.80;99.90;;;;;;5075290;28;20674;-76
2022/08/28 04:36:38;;;;;;;20.48;15.45;;;17.80;99.90;;;;;;5075189;28;20195;-76
2022/08/28 04:39:09;;;;;;;19.80;15.40;;;17.80;99.90;;;;;;5075015;28;20195;-76
2022/08/28 04:41:38;;;;;;;19.63;14.80;;;17.90;99.90;;;;;;5063721;28;20223;-74
2022/08/28 04:44:08;;;;;;;24.00;16.90;;;17.90;99.90;;;;;;5075056;28;20218;-73
2022/08/28 04:46:37;;;;;;;24.70;15.60;;;17.90;99.90;;;;;;5067732;28;20201;-74
2022/08/28 04:49:07;;;;;;;21.42;16.10;;;17.90;99.90;;;;;;5075058;28;20206;-71
2022/08/28 04:51:36;;;;;;;23.20;16.30;;;17.90;99.90;;;;;;5075007;28;20721;-75
2022/08/28 04:54:10;;;;;;;19.42;15.13;;;17.80;99.90;;;;;;5073961;28;20564;-74
2022/08/28 04:56:40;;;;;;;18.95;16.23;;;17.90;99.90;;;;;;5069699;28;20204;-75
2022/08/28 04:59:10;;;;;;;20.15;16.10;;;17.90;99.90;;;;;;5054139;28;20200;-73
2022/08/28 05:01:41;;;;;;;23.67;16.45;;;17.90;99.90;;;;;;5054684;28;20219;-72
2022/08/28 05:04:12;;;;;;;22.33;15.73;;;17.90;99.90;;;;;;5054003;28;20219;-74
2022/08/28 05:06:44;;;;;;;19.88;15.60;;;17.90;99.90;;;;;;5067674;28;20188;-75
2022/08/28 05:09:15;;;;;;;19.00;15.60;;;17.90;99.90;;;;;;5054981;28;20195;-75
2022/08/28 05:11:44;;;;;;;20.90;16.17;;;17.90;99.90;;;;;;5054699;28;20595;-74
2022/08/28 05:14:14;;;;;;;21.42;14.73;;;17.90;99.90;;;;;;5054826;28;20203;-74
2022/08/28 05:16:46;;;;;;;22.77;16.08;;;17.90;99.90;;;;;;5053370;28;20195;-76
2022/08/28 05:19:18;;;;;;;24.92;15.68;;;17.90;99.90;;;;;;5053451;28;20653;-74
2022/08/28 05:21:47;;;;;;;23.38;15.95;;;17.90;99.90;;;;;;5060035;28;20224;-74
2022/08/28 05:24:17;;;;;;;21.60;15.32;;;17.90;99.90;;;;;;5053250;28;20216;-74
2022/08/28 05:26:46;;;;;;;19.85;15.60;;;17.90;99.90;;;;;;5054730;28;20550;-74
2022/08/28 05:29:16;;;;;;;19.92;15.68;;;17.90;99.90;;;;;;5053566;28;20184;-74
2022/08/28 05:31:46;;;;;;;20.10;15.75;;;17.90;99.90;;;;;;5054141;28;20215;-75
2022/08/28 05:34:17;;;;;;;19.45;15.00;;;17.90;99.90;;;;;;5036688;28;20654;-74
2022/08/28 05:36:45;;;;;;;18.95;14.98;;;17.90;99.90;;;;;;5053748;28;20203;-73
2022/08/28 05:39:15;;;;;;;19.98;15.75;;;17.90;99.90;;;;;;5054232;28;20231;-74
2022/08/28 05:41:45;;;;;;;18.50;14.27;;;18.00;99.90;;;;;;5052478;28;20223;-73
2022/08/28 05:44:16;;;;;;;16.48;14.63;;;18.00;99.90;;;;;;5053993;28;20215;-74
2022/08/28 05:46:47;;;;;;;17.27;14.70;;;17.90;99.90;;;;;;5054182;28;20548;-74
2022/08/28 05:49:18;;;;;;;20.40;15.27;;;17.90;99.90;;;;;;5052927;28;20184;-76
2022/08/28 05:51:49;;;;;;;18.17;14.95;;;18.00;99.90;;;;;;5053433;28;20216;-74
2022/08/28 05:54:18;;;;;;;17.45;14.68;;;18.00;99.90;;;;;;5051364;28;20200;-74
2022/08/28 05:56:47;;;;;;;18.25;14.27;;;18.00;99.90;;;;;;5054125;28;20568;-74
2022/08/28 05:59:16;;;;;;;18.90;15.00;;;18.00;99.90;;;;;;5054053;28;20555;-74
2022/08/28 06:01:47;;;;;;;20.85;16.42;;;18.00;99.90;;;;;;5070188;28;20214;-75
2022/08/28 06:04:21;;;;;;;21.23;15.60;;;18.00;99.90;;;;;;5073654;28;20222;-73
2022/08/28 06:06:50;;;;;;;17.60;14.55;;;17.90;99.90;;;;;;5060010;28;20650;-73
2022/08/28 06:09:21;;;;;;;21.45;16.05;;;18.00;99.90;;;;;;5052275;28;20203;-74
2022/08/28 06:11:58;;;;;;;22.00;14.57;;;18.00;99.90;;;;;;5052266;28;20219;-74
2022/08/28 06:14:28;;;;;;;22.55;15.07;;;18.00;99.90;;;;;;5056173;28;20215;-74
2022/08/28 06:16:58;;;;;;;18.98;15.30;;;18.00;99.90;;;;;;5053582;28;20199;-74
2022/08/28 06:19:30;;;;;;;21.42;16.08;;;18.00;99.90;;;;;;5052371;28;20199;-73
2022/08/28 06:22:00;;;;;;;20.60;15.02;;;18.10;99.90;;;;;;5052411;28;20223;-73
2022/08/28 06:24:35;;;;;;;19.08;14.50;;;18.10;99.90;;;;;;5053239;28;20210;-75
2022/08/28 06:27:05;;;;;;;15.30;12.75;;;18.10;99.90;;;;;;5052349;28;20210;-73
2022/08/28 06:29:33;;;;;;;16.63;13.45;;;18.10;99.90;;;;;;5053145;28;20654;-74
2022/08/28 06:32:04;;;;;;;18.35;13.75;;;18.10;99.90;;;;;;5055727;28;20684;-74
2022/08/28 06:34:35;;;;;;;21.73;14.18;;;18.10;99.90;;;;;;5052313;28;20211;-74
2022/08/28 06:37:04;;;;;;;19.05;13.65;;;18.10;99.90;;;;;;5052923;28;20204;-75
2022/08/28 06:39:33;;;;;;;15.55;13.57;;;18.20;99.90;;;;;;5054829;28;20593;-74
2022/08/28 06:42:01;;;;;;;17.45;13.35;;;18.10;99.90;;;;;;5054368;28;20212;-74
2022/08/28 06:44:31;;;;;;;17.83;13.35;;;18.20;99.90;;;;;;5055391;28;20219;-73
2022/08/28 06:47:00;;;;;;;21.05;14.18;;;18.20;99.90;;;;;;5052026;28;20281;-73
2022/08/28 06:49:29;;;;;;;21.67;15.00;;;18.20;99.90;;;;;;5055404;28;20215;-74
2022/08/28 06:51:59;;;;;;;20.40;15.35;;;18.30;99.90;;;;;;5051913;28;20231;-72
2022/08/28 06:54:29;;;;;;;19.55;12.63;;;18.30;99.90;;;;;;5052707;28;20564;-74
2022/08/28 06:56:58;;;;;;;17.52;12.75;;;18.30;99.90;;;;;;5052717;28;20191;-73
2022/08/28 06:59:27;;;;;;;14.32;11.88;;;18.40;99.90;;;;;;5052504;28;20192;-74
2022/08/28 07:01:56;;;;;;;16.98;13.40;;;18.40;99.90;;;;;;5053969;28;20219;-73
2022/08/28 07:04:25;;;;;;;20.83;12.93;;;18.40;99.90;;;;;;5052686;28;20215;-74
2022/08/28 07:06:53;;;;;;;17.60;13.30;;;18.40;99.90;;;;;;5050312;28;20218;-75
2022/08/28 07:09:24;;;;;;;16.65;13.20;;;18.50;99.90;;;;;;5052059;28;20219;-76
2022/08/28 07:11:53;;;;;;;16.80;12.73;;;18.50;99.90;;;;;;5051734;28;20219;-75
2022/08/28 07:14:23;;;;;;;18.10;13.13;;;18.50;99.90;;;;;;5051520;28;20215;-76
2022/08/28 07:16:54;;;;;;;15.60;12.02;;;18.50;99.90;;;;;;5051380;28;20184;-76
2022/08/28 07:19:23;;;;;;;18.52;12.88;;;18.50;99.90;;;;;;5052363;28;20195;-75
2022/08/28 07:21:52;;;;;;;15.70;12.23;;;18.50;99.90;;;;;;5054757;28;20587;-75
2022/08/28 07:24:22;;;;;;;19.95;12.20;;;18.50;99.90;;;;;;5054175;28;20191;-75
2022/08/28 07:26:53;;;;;;;14.15;11.90;;;18.60;99.90;;;;;;5052261;28;20196;-76
2022/08/28 07:29:22;;;;;;;17.42;12.00;;;18.60;99.90;;;;;;5052256;28;20547;-74
2022/08/28 07:31:54;;;;;;;14.75;12.48;;;18.70;99.90;;;;;;5051671;28;20690;-75
2022/08/28 07:34:23;;;;;;;18.30;12.18;;;18.70;99.90;;;;;;5051928;28;20196;-75
2022/08/28 07:36:57;;;;;;;18.88;12.10;;;18.80;99.90;;;;;;5066057;28;20192;-75
2022/08/28 07:39:25;;;;;;;19.15;12.30;;;18.80;99.90;;;;;;5051136;28;20180;-75
2022/08/28 07:41:56;;;;;;;19.23;10.95;;;18.90;99.90;;;;;;5051471;28;20211;-75
2022/08/28 07:47:11;;;;;;;17.02;11.32;;;19.00;99.90;;;;;;5050942;28;20665;-77
2022/08/28 07:49:40;;;;;;;17.98;10.57;;;19.10;99.90;;;;;;5052058;28;20196;-75
2022/08/28 07:52:10;;;;;;;17.88;11.10;;;19.20;99.90;;;;;;5051218;28;20593;-78
2022/08/28 07:54:39;;;;;;;19.02;11.45;;;19.30;99.90;;;;;;5051373;28;20199;-76
2022/08/28 07:57:10;;;;;;;16.20;10.73;;;19.40;99.90;;;;;;5034303;28;20208;-75
2022/08/28 07:59:39;;;;;;;12.38;9.82;;;19.40;99.90;;;;;;5052120;28;20655;-75
2022/08/28 08:02:12;;;;;;;15.60;10.25;;;19.50;99.90;;;;;;5052169;28;20216;-76
2022/08/28 08:04:41;;;;;;;18.23;9.98;;;19.60;99.90;;;;;;5051949;28;20669;-75
2022/08/28 08:07:11;;;;;;;16.02;9.95;;;19.70;99.90;;;;;;5050394;28;20227;-77
2022/08/28 08:09:42;;;;;;;16.20;9.68;;;19.70;99.90;;;;;;5051365;28;20204;-76
2022/08/28 08:12:13;;;;;;;16.92;9.25;;;19.80;99.90;;;;;;5052284;28;20230;-76
2022/08/28 08:14:44;;;;;;;19.33;9.55;;;20.00;99.90;;;;;;5036833;28;20879;-76
2022/08/28 08:17:12;;;;;;;15.70;9.80;;;20.00;99.90;;;;;;5050019;28;20214;-76
2022/08/28 08:19:41;;;;;;;12.55;8.88;;;20.10;99.90;;;;;;5051764;28;20200;-76
2022/08/28 08:22:10;;;;;;;15.20;9.00;;;20.10;99.90;;;;;;5052262;28;20219;-76
2022/08/28 08:24:39;;;;;;;14.38;9.38;;;20.20;99.90;;;;;;5052683;28;20200;-75
2022/08/28 08:27:09;;;;;;;19.67;10.40;;;20.30;99.90;;;;;;5051697;28;20226;-76
2022/08/28 08:29:39;;;;;;;9.63;8.60;;;20.30;99.90;;;;;;5051821;28;20184;-76
2022/08/28 08:32:10;;;;;;;10.98;8.45;;;20.30;99.90;;;;;;5051650;28;20212;-74
2022/08/28 08:34:42;;;;;;;14.35;9.45;;;20.50;99.90;;;;;;5053089;28;20231;-76
2022/08/28 08:37:12;;;;;;;16.55;9.13;;;20.50;99.90;;;;;;5054610;28;20195;-77
2022/08/28 08:39:42;;;;;;;14.57;8.45;;;20.50;99.90;;;;;;5053540;28;20560;-76
2022/08/28 08:42:21;;;;;;;14.55;9.43;;;20.40;99.90;;;;;;5055159;28;20223;-76
2022/08/28 08:44:53;;;;;;;13.82;9.48;;;20.50;99.90;;;;;;5074119;28;20183;-75
2022/08/28 08:47:31;;;;;;;11.90;8.60;;;20.60;99.90;;;;;;5070006;28;20211;-76
2022/08/28 08:50:02;;;;;;;10.95;8.10;;;20.60;99.90;;;;;;5055063;28;20195;-77
2022/08/28 08:52:45;;;;;;;17.35;8.40;;;20.70;99.90;;;;;;5054360;28;20665;-75
2022/08/28 08:55:23;;;;;;;13.73;8.52;;;20.70;99.90;;;;;;5055039;28;20654;-75
2022/08/28 08:57:56;;;;;;;12.13;9.32;;;20.80;99.90;;;;;;5053943;28;20666;-75
2022/08/28 09:00:27;;;;;;;15.20;8.80;;;20.90;99.90;;;;;;5054863;28;20736;-76
2022/08/28 09:03:02;;;;;;;12.13;8.05;;;21.00;99.90;;;;;;5053753;28;20195;-76
2022/08/28 09:05:45;;;;;;;10.70;8.50;;;21.00;99.90;;;;;;5054736;28;20187;-74
2022/08/28 09:08:25;;;;;;;13.20;9.38;;;21.10;99.90;;;;;;5054256;28;20200;-73
2022/08/28 09:11:01;;;;;;;11.68;8.63;;;21.20;99.90;;;;;;5070542;28;20715;-74
2022/08/28 09:13:39;;;;;;;12.10;7.93;;;21.40;99.90;;;;;;5063991;28;20688;-76
2022/08/28 09:16:20;;;;;;;11.30;8.65;;;21.50;99.90;;;;;;5054640;28;20553;-75
2022/08/28 09:18:50;;;;;;;9.85;7.28;;;21.60;99.90;;;;;;5053351;28;20195;-75
2022/08/28 09:21:25;;;;;;;13.65;8.38;;;21.80;99.90;;;;;;5054408;28;20701;-76
2022/08/28 09:24:01;;;;;;;12.68;7.63;;;22.00;99.90;;;;;;5054425;28;20203;-75
2022/08/28 09:26:39;;;;;;;11.82;7.72;;;22.30;99.90;;;;;;5069485;28;20254;-76
2022/08/28 09:29:17;;;;;;;11.07;8.45;;;22.50;99.90;;;;;;5054204;28;20203;-75
2022/08/28 09:31:47;;;;;;;9.68;7.40;;;22.60;99.90;;;;;;5054332;28;20211;-77
2022/08/28 09:34:29;;;;;;;8.75;7.85;;;22.60;99.90;;;;;;5052382;28;20195;-74
2022/08/28 09:36:59;;;;;;;10.68;7.15;;;22.70;99.90;;;;;;5053488;28;20651;-75
2022/08/28 09:39:29;;;;;;;13.73;7.82;;;22.70;99.90;;;;;;5054237;28;20196;-76
2022/08/28 09:45:06;;;;;;;10.02;6.68;;;22.80;99.90;;;;;;5053682;28;20504;-76
2022/08/28 09:47:42;;;;;;;10.25;6.93;;;22.90;99.90;;;;;;5053944;28;20222;-74
2022/08/28 09:50:27;;;;;;;10.32;6.72;;;23.00;99.90;;;;;;5053984;28;20192;-74
2022/08/28 09:52:57;;;;;;;9.35;6.57;;;23.10;99.90;;;;;;5052425;28;20577;-75
2022/08/28 09:55:35;;;;;;;12.20;7.40;;;23.10;99.90;;;;;;5053966;28;20199;-75
2022/08/28 09:58:04;;;;;;;12.90;7.00;;;23.20;99.90;;;;;;5052793;28;20576;-76
2022/08/28 10:00:36;;;;;;;10.77;6.47;;;23.30;99.90;;;;;;5053715;28;20219;-75
2022/08/28 10:03:16;;;;;;;11.13;6.93;;;23.30;99.90;;;;;;5052345;28;20195;-76
2022/08/28 10:05:56;;;;;;;9.35;6.18;;;23.30;99.90;;;;;;5052679;28;20190;-76
2022/08/28 10:08:39;;;;;;;8.73;6.47;;;23.30;99.90;;;;;;5051370;28;20219;-75
2022/08/28 10:11:19;;;;;;;9.60;6.68;;;23.40;99.90;;;;;;5053580;28;20230;-75
2022/08/28 10:13:56;;;;;;;9.23;5.95;;;23.70;99.90;;;;;;5052738;28;20219;-75
2022/08/28 10:16:39;;;;;;;8.50;6.05;;;23.80;99.90;;;;;;5053465;28;20191;-76
2022/08/28 10:19:23;;;;;;;8.40;6.57;;;24.00;99.90;;;;;;5052774;28;20203;-75
2022/08/28 10:22:01;;;;;;;8.38;6.30;;;24.20;99.90;;;;;;5060564;28;20227;-75
2022/08/28 10:24:57;;;;;;;11.95;6.30;;;24.40;99.90;;;;;;5070428;28;20680;-75
2022/08/28 10:27:39;;;;;;;14.77;6.13;;;24.60;99.90;;;;;;5055941;28;20242;-74
2022/08/28 10:30:14;;;;;;;8.27;6.20;;;24.50;99.90;;;;;;5073293;28;20193;-75
2022/08/28 10:32:58;;;;;;;9.52;6.00;;;24.50;99.90;;;;;;5065360;28;20207;-75
2022/08/28 10:35:40;;;;;;;9.85;6.65;;;24.40;99.90;;;;;;5053338;28;20195;-75
2022/08/28 10:38:12;;;;;;;8.30;6.15;;;24.30;99.90;;;;;;5053118;28;20195;-73
2022/08/28 10:40:50;;;;;;;12.05;6.22;;;24.30;99.90;;;;;;5052882;28;20223;-74
2022/08/28 10:43:23;;;;;;;9.82;5.45;;;24.10;99.90;;;;;;5053094;28;20204;-73
2022/08/28 10:45:53;;;;;;;7.43;5.80;;;24.10;99.90;;;;;;5051771;28;20192;-74
2022/08/28 10:48:27;;;;;;;7.78;4.85;;;24.00;99.90;;;;;;5052843;28;20223;-74
2022/08/28 10:51:02;;;;;;;7.63;5.60;;;24.10;99.90;;;;;;5051647;28;20230;-75
2022/08/28 10:53:37;;;;;;;8.07;5.47;;;24.20;99.90;;;;;;5052849;28;20180;-75
2022/08/28 10:56:10;;;;;;;8.82;6.25;;;24.20;99.90;;;;;;5052808;28;20183;-75
2022/08/28 10:58:40;;;;;;;7.45;5.47;;;24.30;99.90;;;;;;5049638;28;20293;-76
2022/08/28 11:01:13;;;;;;;9.88;5.80;;;24.60;99.90;;;;;;5052620;28;20219;-76
2022/08/28 11:03:45;;;;;;;8.77;5.25;;;24.80;99.90;;;;;;5052604;28;20658;-75
2022/08/28 11:06:23;;;;;;;5.57;4.75;;;25.00;99.90;;;;;;5051774;28;20198;-73
2022/08/28 11:08:56;;;;;;;10.25;5.38;;;25.20;99.90;;;;;;5050675;28;20211;-76
2022/08/28 11:11:43;;;;;;;6.55;4.78;;;25.50;99.90;;;;;;5049964;28;20259;-76
2022/08/28 11:14:28;;;;;;;7.53;4.55;;;25.60;99.90;;;;;;5051208;28;20223;-75
2022/08/28 11:17:01;;;;;;;8.95;4.70;;;26.00;99.30;;;;;;5034597;28;20669;-75
2022/08/28 11:19:55;;;;;;;5.95;4.60;;;25.90;99.80;;;;;;5055600;28;20219;-74
2022/08/28 11:22:29;;;;;;;6.72;4.40;;;25.90;99.90;;;;;;5056696;28;20230;-74
2022/08/28 11:25:11;;;;;;;7.45;4.72;;;25.80;99.90;;;;;;5063274;28;20199;-73
2022/08/28 11:28:00;;;;;;;5.65;4.78;;;25.70;99.50;;;;;;5052002;28;20219;-74
2022/08/28 11:30:35;;;;;;;8.13;4.72;;;25.50;98.60;;;;;;5051321;28;20224;-74
2022/08/28 11:33:07;;;;;;;8.43;4.78;;;25.30;99.50;;;;;;5051618;28;20198;-75
2022/08/28 11:35:46;;;;;;;9.30;5.00;;;25.20;99.60;;;;;;5063397;28;20648;-75
2022/08/28 11:38:48;;;;;;;7.55;5.32;;;25.10;99.90;;;;;;5073870;28;20183;-74
2022/08/28 11:41:21;;;;;;;6.93;4.60;;;24.90;99.70;;;;;;5055278;28;20238;-75
2022/08/28 11:43:52;;;;;;;6.43;5.07;;;24.90;99.10;;;;;;5051076;28;20195;-75
2022/08/28 11:46:27;;;;;;;6.57;4.78;;;25.00;99.30;;;;;;5052156;28;20195;-76
2022/08/28 11:48:58;;;;;;;7.47;4.90;;;25.30;98.00;;;;;;5052059;28;20394;-75
2022/08/28 11:51:49;;;;;;;6.43;4.43;;;25.60;98.10;;;;;;5052460;28;20227;-75
2022/08/28 11:54:40;;;;;;;5.63;4.50;;;25.80;99.10;;;;;;5066791;28;20222;-75
2022/08/28 11:57:17;;;;;;;7.22;5.03;;;25.90;95.10;;;;;;5072087;28;20552;-73
2022/08/28 12:00:05;;;;;;;5.63;4.45;;;26.00;95.00;;;;;;5072246;28;20276;-75
2022/08/28 12:02:52;;;;;;;6.85;4.43;;;25.80;95.50;;;;;;5077616;28;20187;-74
2022/08/28 12:05:43;;;;;;;7.05;4.68;;;25.60;95.20;;;;;;5067376;28;20199;-75
2022/08/28 12:08:34;;;;;;;8.95;4.40;;;25.30;96.40;;;;;;5052977;28;20222;-74
2022/08/28 12:11:03;;;;;;;6.00;4.85;;;25.00;96.50;;;;;;5054129;28;20233;-74
2022/08/28 12:13:49;;;;;;;7.80;5.43;;;24.80;96.40;;;;;;5054928;28;20210;-77
2022/08/28 12:16:18;;;;;;;8.63;6.57;;;24.50;96.70;;;;;;5065506;28;20203;-76
2022/08/28 12:19:00;;;;;;;8.18;4.80;;;24.30;97.20;;;;;;5055728;28;20203;-75
2022/08/28 12:21:35;;;;;;;10.70;5.20;;;24.20;97.80;;;;;;5058356;28;20233;-74
2022/08/28 12:24:21;;;;;;;7.65;5.03;;;24.10;97.80;;;;;;5054110;28;20275;-74
2022/08/28 12:26:54;;;;;;;6.88;5.30;;;23.90;98.80;;;;;;5054217;28;20195;-75
2022/08/28 12:29:33;;;;;;;9.35;5.50;;;23.80;99.10;;;;;;5054756;28;20215;-76
2022/08/28 12:32:20;;;;;;;4.97;4.47;;;23.80;99.70;;;;;;5053069;28;20589;-74
2022/08/28 12:35:06;;;;;;;8.07;5.60;;;23.70;99.00;;;;;;5054780;28;20192;-76
2022/08/28 12:37:42;;;;;;;7.47;4.82;;;23.60;99.40;;;;;;5056583;28;20203;-76
2022/08/28 12:40:23;;;;;;;5.95;4.93;;;23.50;98.70;;;;;;5056344;28;20206;-75
2022/08/28 12:42:57;;;;;;;5.25;4.65;;;23.50;98.30;;;;;;5053856;28;20274;-73
2022/08/28 12:45:32;;;;;;;6.82;5.13;;;23.40;98.90;;;;;;5052910;28;20564;-76
2022/08/28 12:48:05;;;;;;;8.57;4.88;;;23.40;98.40;;;;;;5060067;28;20539;-75
2022/08/28 12:50:37;;;;;;;7.35;5.20;;;23.40;98.30;;;;;;5054319;28;20223;-76
2022/08/28 12:53:15;;;;;;;8.07;4.85;;;23.30;99.50;;;;;;5055521;28;20567;-75
2022/08/28 12:55:44;;;;;;;6.70;4.93;;;23.40;98.80;;;;;;5053737;28;20566;-76
2022/08/28 12:58:27;;;;;;;7.05;4.93;;;23.40;98.40;;;;;;5053039;28;21054;-74
2022/08/28 13:00:59;;;;;;;9.05;5.68;;;23.40;98.70;;;;;;5054211;28;20693;-75
2022/08/28 13:03:29;;;;;;;6.63;5.10;;;23.40;99.10;;;;;;5053402;28;20214;-76
2022/08/28 13:06:03;;;;;;;6.25;4.60;;;23.50;98.90;;;;;;5054622;28;20222;-75
2022/08/28 13:08:33;;;;;;;9.52;5.22;;;23.60;97.50;;;;;;5055304;28;20195;-75